createdAt,value
2022-11-14T00:00:28.030Z,14.46
2022-11-14T00:02:55.021Z,14.49
2022-11-14T00:05:22.033Z,14.49
2022-11-14T00:07:48.574Z,14.40
2022-11-14T00:10:15.714Z,14.43
2022-11-14T00:12:42.527Z,14.45
2022-11-14T00:15:10.715Z,14.57
2022-11-14T00:17:37.982Z,14.50
2022-11-14T00:20:06.248Z,14.56
2022-11-14T00:22:32.788Z,14.49
2022-11-14T00:24:59.767Z,14.47
2022-11-14T00:27:26.373Z,14.53
2022-11-14T00:29:53.138Z,14.49
2022-11-14T00:32:20.202Z,14.43
2022-11-14T00:34:46.744Z,14.53
2022-11-14T00:37:13.274Z,14.41
2022-11-14T00:39:39.806Z,14.43
2022-11-14T00:42:06.755Z,14.49
2022-11-14T00:44:33.309Z,14.42
2022-11-14T00:46:59.771Z,14.49
2022-11-14T00:49:26.333Z,14.51
2022-11-14T00:51:52.854Z,14.57
2022-11-14T00:54:19.330Z,14.54
2022-11-14T00:56:45.811Z,14.54
2022-11-14T00:59:12.982Z,14.54
2022-11-14T01:01:39.509Z,14.43
2022-11-14T01:04:05.991Z,14.46
2022-11-14T01:06:32.481Z,14.45
2022-11-14T01:08:58.995Z,14.47
2022-11-14T01:11:25.513Z,14.52
2022-11-14T01:13:52.135Z,14.62
2022-11-14T01:16:20.030Z,14.59
2022-11-14T01:18:46.513Z,14.46
2022-11-14T01:21:14.289Z,14.46
2022-11-14T01:23:40.939Z,14.49
2022-11-14T01:26:14.653Z,14.48
2022-11-14T01:28:41.671Z,14.54
2022-11-14T01:31:20.474Z,14.49
2022-11-14T01:33:51.277Z,14.37
2022-11-14T01:36:19.066Z,14.34
2022-11-14T01:38:46.033Z,14.40
2022-11-14T01:41:14.907Z,14.35
2022-11-14T01:43:41.905Z,14.39
2022-11-14T01:46:23.896Z,14.43
2022-11-14T01:48:57.630Z,14.43
2022-11-14T01:51:29.768Z,14.44
2022-11-14T01:53:58.839Z,14.38
2022-11-14T01:56:40.462Z,14.41
2022-11-14T01:59:11.130Z,14.34
2022-11-14T02:01:46.175Z,14.35
2022-11-14T02:04:17.776Z,14.37
2022-11-14T02:06:46.727Z,14.40
2022-11-14T02:09:13.437Z,14.32
2022-11-14T02:11:43.457Z,14.28
2022-11-14T02:14:10.383Z,14.26
2022-11-14T02:16:39.441Z,14.28
2022-11-14T02:19:06.364Z,14.28
2022-11-14T02:21:32.933Z,14.29
2022-11-14T02:23:59.448Z,14.25
2022-11-14T02:26:26.057Z,14.33
2022-11-14T02:28:53.358Z,14.29
2022-11-14T02:31:19.846Z,14.24
2022-11-14T02:33:46.330Z,14.29
2022-11-14T02:36:12.848Z,14.23
2022-11-14T02:38:39.364Z,14.25
2022-11-14T02:41:05.834Z,14.23
2022-11-14T02:43:32.367Z,14.21
2022-11-14T02:46:02.887Z,14.27
2022-11-14T02:48:32.327Z,14.21
2022-11-14T02:50:59.051Z,14.25
2022-11-14T02:53:25.716Z,14.16
2022-11-14T02:55:52.212Z,14.29
2022-11-14T02:58:19.337Z,14.19
2022-11-14T03:01:13.628Z,14.26
2022-11-14T03:03:32.519Z,14.20
2022-11-14T03:06:00.552Z,14.22
2022-11-14T03:08:27.888Z,14.27
2022-11-14T03:10:55.036Z,14.29
2022-11-14T03:13:21.944Z,14.29
2022-11-14T03:15:48.783Z,14.36
2022-11-14T03:18:15.576Z,14.37
2022-11-14T03:20:42.064Z,14.32
2022-11-14T03:23:08.682Z,14.39
2022-11-14T03:25:35.252Z,14.41
2022-11-14T03:28:01.704Z,14.37
2022-11-14T03:30:28.230Z,14.46
2022-11-14T03:32:56.644Z,14.36
2022-11-14T03:35:23.993Z,14.43
2022-11-14T03:37:53.918Z,14.53
2022-11-14T03:40:22.914Z,14.43
2022-11-14T03:42:49.440Z,14.53
2022-11-14T03:45:16.021Z,14.53
2022-11-14T03:47:42.530Z,14.57
2022-11-14T03:50:09.189Z,14.60
2022-11-14T03:52:35.665Z,14.61
2022-11-14T03:55:02.157Z,14.65
2022-11-14T03:57:28.642Z,14.63
2022-11-14T03:59:55.169Z,14.65
2022-11-14T04:02:21.660Z,14.67
2022-11-14T04:04:48.196Z,14.66
2022-11-14T04:07:14.744Z,14.69
2022-11-14T04:09:41.402Z,14.76
2022-11-14T04:12:11.330Z,14.69
2022-11-14T04:14:41.988Z,14.69
2022-11-14T04:17:08.556Z,14.78
2022-11-14T04:19:35.121Z,14.71
2022-11-14T04:22:01.676Z,14.83
2022-11-14T04:24:28.169Z,14.72
2022-11-14T04:26:54.723Z,14.79
2022-11-14T04:29:21.196Z,14.73
2022-11-14T04:31:47.713Z,14.70
2022-11-14T04:34:14.237Z,14.78
2022-11-14T04:36:40.774Z,14.69
2022-11-14T04:39:07.323Z,14.67
2022-11-14T04:41:33.913Z,14.72
2022-11-14T04:44:00.516Z,14.79
2022-11-14T04:46:27.017Z,14.84
2022-11-14T04:48:53.642Z,14.71
2022-11-14T04:51:20.229Z,14.79
2022-11-14T04:53:46.756Z,14.79
2022-11-14T04:56:13.270Z,14.79
2022-11-14T04:58:39.899Z,14.81
2022-11-14T05:01:10.634Z,14.77
2022-11-14T05:03:37.229Z,14.83
2022-11-14T05:06:04.273Z,14.83
2022-11-14T05:08:30.936Z,14.88
2022-11-14T05:10:57.668Z,14.76
2022-11-14T05:13:24.153Z,14.85
2022-11-14T05:15:50.939Z,14.78
2022-11-14T05:18:17.612Z,14.75
2022-11-14T05:20:44.282Z,14.69
2022-11-14T05:23:20.278Z,14.68
2022-11-14T05:25:47.353Z,14.76
2022-11-14T05:28:14.223Z,14.77
2022-11-14T05:30:40.734Z,14.71
2022-11-14T05:33:07.204Z,14.62
2022-11-14T05:35:33.721Z,14.59
2022-11-14T05:38:03.033Z,14.55
2022-11-14T05:40:29.563Z,14.62
2022-11-14T05:42:56.857Z,14.48
2022-11-14T05:45:23.388Z,14.49
2022-11-14T05:47:51.648Z,14.48
2022-11-14T05:50:18.125Z,14.49
2022-11-14T05:52:44.670Z,14.40
2022-11-14T05:55:11.158Z,14.45
2022-11-14T05:57:37.972Z,14.52
2022-11-14T06:00:05.714Z,14.38
2022-11-14T06:02:32.269Z,14.37
2022-11-14T06:04:58.894Z,14.41
2022-11-14T06:07:25.481Z,14.30
2022-11-14T06:09:52.010Z,14.34
2022-11-14T06:12:18.664Z,14.40
2022-11-14T06:14:45.191Z,14.47
2022-11-14T06:17:11.795Z,14.46
2022-11-14T06:19:38.294Z,14.44
2022-11-14T06:22:05.195Z,14.39
2022-11-14T06:24:31.771Z,14.42
2022-11-14T06:26:58.804Z,14.43
2022-11-14T06:29:25.320Z,14.47
2022-11-14T06:31:51.801Z,14.45
2022-11-14T06:34:18.284Z,14.47
2022-11-14T06:36:44.783Z,14.39
2022-11-14T06:39:11.244Z,14.41
2022-11-14T06:41:37.757Z,14.38
2022-11-14T06:44:04.337Z,14.41
2022-11-14T06:46:31.132Z,14.38
2022-11-14T06:48:57.640Z,14.41
2022-11-14T06:51:24.205Z,14.41
2022-11-14T06:53:50.715Z,14.44
2022-11-14T06:56:18.486Z,14.39
2022-11-14T06:58:47.471Z,14.48
2022-11-14T07:01:17.167Z,14.56
2022-11-14T07:03:44.669Z,14.47
2022-11-14T07:06:14.198Z,14.43
2022-11-14T07:08:40.744Z,14.42
2022-11-14T07:11:22.695Z,14.35
2022-11-14T07:13:50.996Z,14.36
2022-11-14T07:16:17.891Z,14.35
2022-11-14T07:18:44.867Z,14.38
2022-11-14T07:21:14.544Z,14.32
2022-11-14T07:23:41.827Z,14.35
2022-11-14T07:26:10.865Z,14.31
2022-11-14T07:28:40.440Z,14.32
2022-11-14T07:31:09.439Z,14.27
2022-11-14T07:33:36.257Z,14.33
2022-11-14T07:36:03.731Z,14.37
2022-11-14T07:38:35.171Z,14.46
2022-11-14T07:41:07.557Z,14.45
2022-11-14T07:43:34.966Z,14.51
2022-11-14T07:46:06.825Z,14.46
2022-11-14T07:48:34.695Z,14.57
2022-11-14T07:51:03.219Z,14.62
2022-11-14T07:53:30.481Z,14.63
2022-11-14T07:56:01.980Z,14.67
2022-11-14T07:58:28.774Z,14.71
2022-11-14T08:00:55.597Z,14.65
2022-11-14T08:03:22.786Z,14.66
2022-11-14T08:05:49.425Z,14.69
2022-11-14T08:08:16.038Z,14.76
2022-11-14T08:10:42.755Z,14.82
2022-11-14T08:13:31.072Z,14.90
2022-11-14T08:15:59.930Z,14.88
2022-11-14T08:18:26.917Z,14.91
2022-11-14T08:20:54.296Z,14.95
2022-11-14T08:23:20.804Z,15.00
2022-11-14T08:25:47.381Z,15.08
2022-11-14T08:28:14.001Z,15.23
2022-11-14T08:30:40.588Z,15.23
2022-11-14T08:33:07.601Z,15.30
2022-11-14T08:35:34.437Z,15.29
2022-11-14T08:38:02.062Z,15.35
2022-11-14T08:40:29.304Z,15.30
2022-11-14T08:43:01.132Z,15.35
2022-11-14T08:45:28.862Z,15.41
2022-11-14T08:47:55.716Z,15.46
2022-11-14T08:50:22.286Z,15.59
2022-11-14T08:52:52.217Z,15.65
2022-11-14T08:55:20.344Z,15.59
2022-11-14T08:57:49.707Z,15.58
2022-11-14T09:00:17.395Z,15.65
2022-11-14T09:02:44.328Z,15.69
2022-11-14T09:05:11.329Z,15.74
2022-11-14T09:07:38.820Z,15.77
2022-11-14T09:10:06.356Z,15.81
2022-11-14T09:12:33.078Z,15.85
2022-11-14T09:14:59.779Z,15.90
2022-11-14T09:17:26.671Z,16.01
2022-11-14T09:19:54.044Z,16.15
2022-11-14T09:22:20.596Z,16.33
2022-11-14T09:24:47.768Z,16.33
2022-11-14T09:27:14.399Z,16.46
2022-11-14T09:29:41.142Z,16.45
2022-11-14T09:32:07.919Z,16.48
2022-11-14T09:34:35.208Z,16.52
2022-11-14T09:37:01.791Z,16.60
2022-11-14T09:39:28.398Z,16.61
2022-11-14T09:42:17.320Z,16.60
2022-11-14T09:45:06.661Z,16.66
2022-11-14T09:47:41.435Z,16.67
2022-11-14T09:50:13.361Z,16.57
2022-11-14T09:52:47.591Z,16.60
2022-11-14T09:55:17.701Z,16.58
2022-11-14T09:57:45.937Z,16.64
2022-11-14T10:00:24.684Z,16.63
2022-11-14T10:03:30.320Z,16.63
2022-11-14T10:06:18.915Z,16.87
2022-11-14T10:09:16.503Z,16.94
2022-11-14T10:12:07.783Z,16.87
2022-11-14T10:14:54.116Z,16.99
2022-11-14T10:17:23.540Z,16.94
2022-11-14T10:19:57.451Z,17.01
2022-11-14T10:23:01.743Z,17.04
2022-11-14T10:25:46.767Z,17.19
2022-11-14T10:28:13.397Z,17.26
2022-11-14T10:30:51.963Z,17.24
2022-11-14T10:33:32.333Z,17.17
2022-11-14T10:36:37.410Z,17.11
2022-11-14T10:39:24.675Z,17.18
2022-11-14T10:41:58.885Z,17.05
2022-11-14T10:44:34.467Z,17.07
2022-11-14T10:47:10.418Z,17.01
2022-11-14T10:49:37.652Z,17.12
2022-11-14T10:52:14.985Z,17.13
2022-11-14T10:54:46.523Z,17.02
2022-11-14T10:57:19.719Z,17.05
2022-11-14T10:59:47.371Z,17.00
2022-11-14T11:02:14.952Z,16.98
2022-11-14T11:04:44.037Z,16.88
2022-11-14T11:07:30.598Z,16.82
2022-11-14T11:10:20.021Z,16.85
2022-11-14T11:12:49.941Z,16.92
2022-11-14T11:15:26.546Z,16.73
2022-11-14T11:18:23.328Z,16.70
2022-11-14T11:21:11.950Z,16.66
2022-11-14T11:23:56.615Z,16.72
2022-11-14T11:26:26.026Z,16.73
2022-11-14T11:29:16.612Z,16.96
2022-11-14T11:31:50.300Z,16.95
2022-11-14T11:34:25.190Z,17.05
2022-11-14T11:37:00.426Z,17.19
2022-11-14T11:39:32.002Z,17.28
2022-11-14T11:42:10.141Z,17.31
2022-11-14T11:44:46.966Z,17.43
2022-11-14T11:47:18.022Z,17.47
2022-11-14T11:49:54.543Z,17.44
2022-11-14T11:52:28.269Z,17.57
2022-11-14T11:55:09.627Z,17.59
2022-11-14T11:57:42.683Z,17.66
2022-11-14T12:00:19.122Z,17.61
2022-11-14T12:02:50.031Z,17.69
2022-11-14T12:05:25.722Z,17.80
2022-11-14T12:08:04.460Z,17.86
2022-11-14T12:10:36.246Z,17.88
2022-11-14T12:13:18.686Z,17.79
2022-11-14T12:16:13.550Z,17.77
2022-11-14T12:18:40.909Z,17.64
2022-11-14T12:21:33.259Z,17.70
2022-11-14T12:24:06.621Z,17.65
2022-11-14T12:26:48.418Z,17.62
2022-11-14T12:29:21.200Z,17.67
2022-11-14T12:31:58.777Z,17.78
2022-11-14T12:34:31.115Z,17.82
2022-11-14T12:36:58.510Z,17.84
2022-11-14T12:39:28.050Z,17.76
2022-11-14T12:42:03.799Z,17.72
2022-11-14T12:44:30.564Z,17.57
2022-11-14T12:47:27.326Z,17.55
2022-11-14T12:49:53.787Z,17.52
2022-11-14T12:52:46.182Z,17.30
2022-11-14T12:55:18.481Z,17.03
2022-11-14T12:57:48.947Z,16.93
2022-11-14T13:00:18.165Z,16.83
2022-11-14T13:03:04.169Z,16.96
2022-11-14T13:05:46.802Z,16.75
2022-11-14T13:08:51.884Z,16.75
2022-11-14T13:11:59.191Z,16.79
2022-11-14T13:14:45.078Z,16.90
2022-11-14T13:17:43.435Z,16.73
2022-11-14T13:20:40.997Z,16.48
2022-11-14T13:23:28.129Z,16.76
2022-11-14T13:26:10.181Z,16.34
2022-11-14T13:28:52.910Z,16.22
2022-11-14T13:31:22.561Z,16.13
2022-11-14T13:33:50.285Z,16.22
2022-11-14T13:36:48.486Z,16.11
2022-11-14T13:39:18.559Z,15.96
2022-11-14T13:41:54.083Z,16.04
2022-11-14T13:44:45.024Z,15.95
2022-11-14T13:47:34.438Z,15.85
2022-11-14T13:50:28.369Z,15.88
2022-11-14T13:52:55.520Z,15.81
2022-11-14T13:55:28.053Z,15.84
2022-11-14T13:58:03.936Z,15.78
2022-11-14T14:01:03.161Z,15.70
2022-11-14T14:03:40.353Z,15.64
2022-11-14T14:06:26.302Z,15.68
2022-11-14T14:09:50.413Z,15.82
2022-11-14T14:12:33.016Z,15.69
2022-11-14T14:15:14.874Z,15.66
2022-11-14T14:17:56.563Z,15.63
2022-11-14T14:20:52.063Z,15.61
2022-11-14T14:23:37.207Z,15.64
2022-11-14T14:26:06.718Z,15.73
2022-11-14T14:28:42.445Z,15.70
2022-11-14T14:31:16.185Z,15.67
2022-11-14T14:33:48.058Z,15.64
2022-11-14T14:36:22.243Z,15.60
2022-11-14T14:38:49.989Z,15.56
2022-11-14T14:41:19.041Z,15.71
2022-11-14T14:43:55.908Z,15.64
2022-11-14T14:46:29.183Z,15.62
2022-11-14T14:48:56.929Z,15.44
2022-11-14T14:51:36.165Z,15.50
2022-11-14T14:54:02.782Z,15.43
2022-11-14T14:56:29.309Z,15.57
2022-11-14T14:58:57.042Z,15.42
2022-11-14T15:01:31.683Z,15.33
2022-11-14T15:04:03.841Z,15.44
2022-11-14T15:06:34.582Z,15.38
2022-11-14T15:09:09.077Z,15.49
2022-11-14T15:11:39.879Z,15.36
2022-11-14T15:14:10.644Z,15.39
2022-11-14T15:16:37.569Z,15.38
2022-11-14T15:19:04.930Z,15.37
2022-11-14T15:21:31.604Z,15.31
2022-11-14T15:24:15.950Z,15.26
2022-11-14T15:26:47.737Z,15.16
2022-11-14T15:29:21.485Z,15.21
2022-11-14T15:31:51.594Z,15.17
2022-11-14T15:34:27.830Z,15.07
2022-11-14T15:37:06.620Z,15.16
2022-11-14T15:39:33.182Z,15.18
2022-11-14T15:42:15.203Z,15.24
2022-11-14T15:44:46.807Z,15.08
2022-11-14T15:47:18.340Z,15.09
2022-11-14T15:50:14.192Z,15.07
2022-11-14T15:52:49.049Z,15.04
2022-11-14T15:55:21.301Z,15.06
2022-11-14T15:57:55.836Z,15.01
2022-11-14T16:00:33.465Z,15.08
2022-11-14T16:03:00.845Z,15.17
2022-11-14T16:05:31.022Z,15.10
2022-11-14T16:07:57.925Z,15.10
2022-11-14T16:10:26.738Z,15.19
2022-11-14T16:12:53.812Z,15.02
2022-11-14T16:15:21.730Z,15.07
2022-11-14T16:17:50.074Z,15.02
2022-11-14T16:20:21.938Z,15.06
2022-11-14T16:22:50.093Z,14.87
2022-11-14T16:25:32.059Z,14.98
2022-11-14T16:27:58.613Z,15.00
2022-11-14T16:30:26.245Z,14.94
2022-11-14T16:32:53.073Z,15.11
2022-11-14T16:35:22.325Z,15.05
2022-11-14T16:37:49.541Z,15.25
2022-11-14T16:40:33.929Z,15.20
2022-11-14T16:43:01.471Z,14.90
2022-11-14T16:45:29.548Z,14.94
2022-11-14T16:47:56.098Z,14.86
2022-11-14T16:50:22.573Z,14.76
2022-11-14T16:52:49.277Z,14.74
2022-11-14T16:55:15.979Z,14.96
2022-11-14T16:57:42.638Z,14.99
2022-11-14T17:00:12.458Z,14.90
2022-11-14T17:02:42.465Z,14.58
2022-11-14T17:05:09.078Z,14.59
2022-11-14T17:07:35.637Z,14.56
2022-11-14T17:10:02.396Z,14.48
2022-11-14T17:12:29.312Z,14.41
2022-11-14T17:14:55.895Z,14.48
2022-11-14T17:17:22.515Z,14.38
2022-11-14T17:19:49.797Z,14.41
2022-11-14T17:22:18.211Z,14.34
2022-11-14T17:24:44.882Z,14.31
2022-11-14T17:27:13.019Z,14.40
2022-11-14T17:29:39.887Z,14.49
2022-11-14T17:32:06.527Z,14.44
2022-11-14T17:34:33.113Z,14.52
2022-11-14T17:36:59.680Z,14.53
2022-11-14T17:39:26.361Z,14.18
2022-11-14T17:41:53.244Z,14.29
2022-11-14T17:44:19.764Z,14.32
2022-11-14T17:46:47.661Z,14.33
2022-11-14T17:49:14.176Z,14.35
2022-11-14T17:51:40.722Z,14.24
2022-11-14T17:54:07.516Z,14.18
2022-11-14T17:56:34.182Z,14.21
2022-11-14T17:59:00.721Z,14.21
2022-11-14T18:01:28.668Z,14.14
2022-11-14T18:03:57.577Z,14.10
2022-11-14T18:06:27.215Z,14.22
2022-11-14T18:08:54.345Z,14.31
2022-11-14T18:11:20.988Z,14.18
2022-11-14T18:13:47.598Z,14.24
2022-11-14T18:16:19.615Z,14.25
2022-11-14T18:18:46.215Z,14.09
2022-11-14T18:21:17.617Z,14.13
2022-11-14T18:23:44.568Z,13.90
2022-11-14T18:26:13.157Z,14.06
2022-11-14T18:28:39.846Z,14.07
2022-11-14T18:31:10.160Z,14.02
2022-11-14T18:33:41.223Z,14.13
2022-11-14T18:36:11.709Z,14.14
2022-11-14T18:38:39.038Z,14.04
2022-11-14T18:41:20.858Z,13.94
2022-11-14T18:43:47.993Z,14.06
2022-11-14T18:46:17.034Z,13.99
2022-11-14T18:48:46.890Z,13.91
2022-11-14T18:51:17.039Z,14.02
2022-11-14T18:53:43.580Z,14.10
2022-11-14T18:56:21.107Z,13.97
2022-11-14T18:58:47.881Z,13.81
2022-11-14T19:01:24.957Z,13.81
2022-11-14T19:03:52.639Z,13.81
2022-11-14T19:06:19.581Z,13.80
2022-11-14T19:08:46.354Z,13.75
2022-11-14T19:11:33.657Z,13.81
2022-11-14T19:14:05.987Z,13.79
2022-11-14T19:16:34.478Z,13.70
2022-11-14T19:19:01.715Z,13.63
2022-11-14T19:21:29.149Z,13.64
2022-11-14T19:23:55.862Z,13.64
2022-11-14T19:26:23.277Z,13.60
2022-11-14T19:28:50.099Z,13.60
2022-11-14T19:31:17.803Z,13.56
2022-11-14T19:33:47.692Z,13.57
2022-11-14T19:36:44.903Z,13.49
2022-11-14T19:39:07.284Z,13.38
2022-11-14T19:41:33.832Z,13.34
2022-11-14T19:44:02.069Z,13.43
2022-11-14T19:46:31.538Z,13.48
2022-11-14T19:48:59.776Z,13.44
2022-11-14T19:51:27.333Z,13.41
2022-11-14T19:53:55.237Z,13.36
2022-11-14T19:56:23.464Z,13.38
2022-11-14T19:58:51.736Z,13.40
2022-11-14T20:01:22.554Z,13.39
2022-11-14T20:03:57.200Z,13.38
2022-11-14T20:06:34.747Z,13.41
2022-11-14T20:09:05.640Z,13.36
2022-11-14T20:11:32.292Z,13.43
2022-11-14T20:13:59.921Z,13.45
2022-11-14T20:16:29.223Z,13.48
2022-11-14T20:18:59.391Z,13.51
2022-11-14T20:21:28.018Z,13.58
2022-11-14T20:23:54.674Z,13.63
2022-11-14T20:26:22.284Z,13.58
2022-11-14T20:28:52.155Z,13.61
2022-11-14T20:31:21.112Z,13.57
2022-11-14T20:33:49.464Z,13.49
2022-11-14T20:36:18.498Z,13.62
2022-11-14T20:38:45.477Z,13.61
2022-11-14T20:41:12.792Z,13.60
2022-11-14T20:43:40.784Z,13.60
2022-11-14T20:46:14.676Z,13.59
2022-11-14T20:48:42.255Z,13.59
2022-11-14T20:51:21.405Z,13.58
2022-11-14T20:53:49.177Z,13.53
2022-11-14T20:56:17.151Z,13.51
2022-11-14T20:58:45.105Z,13.50
2022-11-14T21:01:12.797Z,13.64
2022-11-14T21:03:39.834Z,13.54
2022-11-14T21:06:07.827Z,13.54
2022-11-14T21:08:35.983Z,13.44
2022-11-14T21:11:05.285Z,13.38
2022-11-14T21:13:54.039Z,13.38
2022-11-14T21:16:21.307Z,13.43
2022-11-14T21:18:48.371Z,13.39
2022-11-14T21:21:19.446Z,13.39
2022-11-14T21:23:47.374Z,13.39
2022-11-14T21:26:14.906Z,13.39
2022-11-14T21:28:43.831Z,13.36
2022-11-14T21:31:17.641Z,13.35
2022-11-14T21:33:44.877Z,13.27
2022-11-14T21:39:00.056Z,13.36
2022-11-14T21:41:28.740Z,13.36
2022-11-14T21:43:57.460Z,13.30
2022-11-14T21:46:25.194Z,13.31
2022-11-14T21:48:52.214Z,13.34
2022-11-14T21:51:24.349Z,13.34
2022-11-14T21:53:55.160Z,13.38
2022-11-14T21:56:24.421Z,13.40
2022-11-14T21:59:12.125Z,13.35
2022-11-14T22:01:58.995Z,13.33
2022-11-14T22:04:26.421Z,13.34
2022-11-14T22:06:53.527Z,13.35
2022-11-14T22:09:20.438Z,13.32
2022-11-14T22:11:47.066Z,13.33
2022-11-14T22:14:13.554Z,13.36
2022-11-14T22:16:40.269Z,13.35
2022-11-14T22:19:07.052Z,13.29
2022-11-14T22:21:33.542Z,13.28
2022-11-14T22:24:00.155Z,13.25
2022-11-14T22:26:26.694Z,13.26
2022-11-14T22:28:53.241Z,13.20
2022-11-14T22:31:22.864Z,13.14
2022-11-14T22:33:51.794Z,13.12
2022-11-14T22:36:23.748Z,13.10
2022-11-14T22:38:52.449Z,13.07
2022-11-14T22:41:21.360Z,13.05
2022-11-14T22:43:47.998Z,13.05
2022-11-14T22:46:16.971Z,13.07
2022-11-14T22:48:44.912Z,13.08
2022-11-14T22:51:25.500Z,13.08
2022-11-14T22:54:00.997Z,13.07
2022-11-14T22:56:29.135Z,13.01
2022-11-14T22:58:56.332Z,13.03
2022-11-14T23:01:31.335Z,13.02
2022-11-14T23:04:04.378Z,12.99
2022-11-14T23:06:33.604Z,13.02
2022-11-14T23:09:01.069Z,12.96
2022-11-14T23:11:30.030Z,12.87
2022-11-14T23:13:57.992Z,12.74
2022-11-14T23:16:27.369Z,12.77
2022-11-14T23:18:55.781Z,12.81
2022-11-14T23:21:25.201Z,12.86
2022-11-14T23:23:57.332Z,12.96
2022-11-14T23:26:24.978Z,12.93
2022-11-14T23:28:51.770Z,12.95
2022-11-14T23:31:19.129Z,12.94
2022-11-14T23:33:46.772Z,12.96
2022-11-14T23:36:13.830Z,12.98
2022-11-14T23:38:40.800Z,12.95
2022-11-14T23:41:07.416Z,13.05
2022-11-14T23:43:34.297Z,12.99
2022-11-14T23:46:01.136Z,13.02
2022-11-14T23:48:28.185Z,12.97
2022-11-14T23:50:56.632Z,13.05
2022-11-14T23:53:23.570Z,13.06
2022-11-14T23:55:58.626Z,13.02
2022-11-14T23:58:26.577Z,12.98
